sensor_id;sensor_type;location;lat;lon;timestamp;P1;durP1;ratioP1;P2;durP2;ratioP2
20458;SDS011;10388;52.314;7.938;2023-07-29T00:03:22;3.27;;;2.70;;
20458;SDS011;10388;52.314;7.938;2023-07-29T00:05:58;3.53;;;2.63;;
20458;SDS011;10388;52.314;7.938;2023-07-29T00:08:32;3.43;;;3.10;;
20458;SDS011;10388;52.314;7.938;2023-07-29T00:11:03;3.53;;;3.23;;
20458;SDS011;10388;52.314;7.938;2023-07-29T00:13:34;3.60;;;3.30;;
20458;SDS011;10388;52.314;7.938;2023-07-29T00:16:04;3.20;;;2.90;;
20458;SDS011;10388;52.314;7.938;2023-07-29T00:18:42;3.70;;;3.40;;
20458;SDS011;10388;52.314;7.938;2023-07-29T00:21:20;4.00;;;3.53;;
20458;SDS011;10388;52.314;7.938;2023-07-29T00:23:51;3.23;;;2.93;;
20458;SDS011;10388;52.314;7.938;2023-07-29T00:26:25;3.60;;;3.30;;
20458;SDS011;10388;52.314;7.938;2023-07-29T00:29:15;4.10;;;3.80;;
20458;SDS011;10388;52.314;7.938;2023-07-29T00:31:45;4.10;;;3.80;;
20458;SDS011;10388;52.314;7.938;2023-07-29T00:34:16;4.73;;;4.00;;
20458;SDS011;10388;52.314;7.938;2023-07-29T00:36:49;4.10;;;3.70;;
20458;SDS011;10388;52.314;7.938;2023-07-29T00:39:20;4.70;;;4.20;;
20458;SDS011;10388;52.314;7.938;2023-07-29T00:41:50;4.47;;;4.07;;
20458;SDS011;10388;52.314;7.938;2023-07-29T00:44:21;4.83;;;4.10;;
20458;SDS011;10388;52.314;7.938;2023-07-29T00:46:52;4.97;;;4.47;;
20458;SDS011;10388;52.314;7.938;2023-07-29T00:49:23;4.07;;;3.73;;
20458;SDS011;10388;52.314;7.938;2023-07-29T00:51:54;4.20;;;3.80;;
20458;SDS011;10388;52.314;7.938;2023-07-29T00:54:27;4.20;;;3.80;;
20458;SDS011;10388;52.314;7.938;2023-07-29T00:56:58;4.43;;;4.03;;
20458;SDS011;10388;52.314;7.938;2023-07-29T00:59:29;4.03;;;3.73;;
20458;SDS011;10388;52.314;7.938;2023-07-29T01:02:02;4.60;;;4.20;;
20458;SDS011;10388;52.314;7.938;2023-07-29T01:04:33;4.40;;;4.00;;
20458;SDS011;10388;52.314;7.938;2023-07-29T01:10:02;4.27;;;3.90;;
20458;SDS011;10388;52.314;7.938;2023-07-29T01:15:10;4.57;;;4.17;;
20458;SDS011;10388;52.314;7.938;2023-07-29T01:17:46;4.93;;;4.00;;
20458;SDS011;10388;52.314;7.938;2023-07-29T01:20:23;4.40;;;4.00;;
20458;SDS011;10388;52.314;7.938;2023-07-29T01:22:58;5.67;;;4.73;;
20458;SDS011;10388;52.314;7.938;2023-07-29T01:25:34;4.80;;;4.40;;
20458;SDS011;10388;52.314;7.938;2023-07-29T01:28:05;5.10;;;4.03;;
20458;SDS011;10388;52.314;7.938;2023-07-29T01:30:38;4.83;;;3.87;;
20458;SDS011;10388;52.314;7.938;2023-07-29T01:33:21;4.20;;;3.80;;
20458;SDS011;10388;52.314;7.938;2023-07-29T01:36:02;4.60;;;4.20;;
20458;SDS011;10388;52.314;7.938;2023-07-29T01:38:37;4.43;;;4.03;;
20458;SDS011;10388;52.314;7.938;2023-07-29T01:41:10;4.57;;;4.17;;
20458;SDS011;10388;52.314;7.938;2023-07-29T01:43:42;5.33;;;4.70;;
20458;SDS011;10388;52.314;7.938;2023-07-29T01:46:16;6.43;;;4.20;;
20458;SDS011;10388;52.314;7.938;2023-07-29T01:48:49;4.90;;;4.50;;
20458;SDS011;10388;52.314;7.938;2023-07-29T01:51:19;6.23;;;4.87;;
20458;SDS011;10388;52.314;7.938;2023-07-29T01:53:51;6.13;;;4.97;;
20458;SDS011;10388;52.314;7.938;2023-07-29T01:56:21;5.80;;;4.93;;
20458;SDS011;10388;52.314;7.938;2023-07-29T01:58:52;5.13;;;4.63;;
20458;SDS011;10388;52.314;7.938;2023-07-29T02:01:23;8.80;;;5.30;;
20458;SDS011;10388;52.314;7.938;2023-07-29T02:03:53;5.83;;;5.33;;
20458;SDS011;10388;52.314;7.938;2023-07-29T02:09:22;6.43;;;5.30;;
20458;SDS011;10388;52.314;7.938;2023-07-29T02:11:52;5.30;;;4.80;;
20458;SDS011;10388;52.314;7.938;2023-07-29T02:14:29;5.50;;;5.00;;
20458;SDS011;10388;52.314;7.938;2023-07-29T02:17:00;5.23;;;4.73;;
20458;SDS011;10388;52.314;7.938;2023-07-29T02:19:30;5.13;;;4.63;;
20458;SDS011;10388;52.314;7.938;2023-07-29T02:22:01;6.87;;;5.33;;
20458;SDS011;10388;52.314;7.938;2023-07-29T02:24:35;6.00;;;4.53;;
20458;SDS011;10388;52.314;7.938;2023-07-29T02:27:11;5.83;;;5.13;;
20458;SDS011;10388;52.314;7.938;2023-07-29T02:29:42;5.97;;;4.70;;
20458;SDS011;10388;52.314;7.938;2023-07-29T02:32:13;6.13;;;4.77;;
20458;SDS011;10388;52.314;7.938;2023-07-29T02:34:43;6.53;;;4.93;;
20458;SDS011;10388;52.314;7.938;2023-07-29T02:37:14;5.17;;;4.67;;
20458;SDS011;10388;52.314;7.938;2023-07-29T02:39:45;7.03;;;4.87;;
20458;SDS011;10388;52.314;7.938;2023-07-29T02:42:16;6.80;;;5.87;;
20458;SDS011;10388;52.314;7.938;2023-07-29T02:44:46;6.60;;;6.00;;
20458;SDS011;10388;52.314;7.938;2023-07-29T02:47:17;6.80;;;6.20;;
20458;SDS011;10388;52.314;7.938;2023-07-29T02:49:47;7.80;;;7.03;;
20458;SDS011;10388;52.314;7.938;2023-07-29T02:52:18;9.47;;;7.30;;
20458;SDS011;10388;52.314;7.938;2023-07-29T02:54:49;7.53;;;6.73;;
20458;SDS011;10388;52.314;7.938;2023-07-29T02:57:19;7.00;;;6.37;;
20458;SDS011;10388;52.314;7.938;2023-07-29T02:59:50;8.00;;;7.20;;
20458;SDS011;10388;52.314;7.938;2023-07-29T03:02:24;8.27;;;7.30;;
20458;SDS011;10388;52.314;7.938;2023-07-29T03:04:54;8.30;;;7.50;;
20458;SDS011;10388;52.314;7.938;2023-07-29T03:07:25;8.50;;;7.50;;
20458;SDS011;10388;52.314;7.938;2023-07-29T03:09:56;9.10;;;8.30;;
20458;SDS011;10388;52.314;7.938;2023-07-29T03:12:26;9.43;;;8.53;;
20458;SDS011;10388;52.314;7.938;2023-07-29T03:15:01;9.67;;;8.77;;
20458;SDS011;10388;52.314;7.938;2023-07-29T03:17:32;9.23;;;8.43;;
20458;SDS011;10388;52.314;7.938;2023-07-29T03:20:02;9.30;;;8.43;;
20458;SDS011;10388;52.314;7.938;2023-07-29T03:22:33;10.13;;;9.10;;
20458;SDS011;10388;52.314;7.938;2023-07-29T03:25:04;9.87;;;8.90;;
20458;SDS011;10388;52.314;7.938;2023-07-29T03:27:36;9.70;;;8.70;;
20458;SDS011;10388;52.314;7.938;2023-07-29T03:30:07;10.10;;;9.10;;
20458;SDS011;10388;52.314;7.938;2023-07-29T03:32:40;9.03;;;8.13;;
20458;SDS011;10388;52.314;7.938;2023-07-29T03:35:16;8.93;;;8.13;;
20458;SDS011;10388;52.314;7.938;2023-07-29T03:38:06;9.53;;;8.60;;
20458;SDS011;10388;52.314;7.938;2023-07-29T03:40:37;9.40;;;8.50;;
20458;SDS011;10388;52.314;7.938;2023-07-29T03:43:08;9.83;;;8.83;;
20458;SDS011;10388;52.314;7.938;2023-07-29T03:48:35;10.50;;;9.43;;
20458;SDS011;10388;52.314;7.938;2023-07-29T03:51:11;9.13;;;8.20;;
20458;SDS011;10388;52.314;7.938;2023-07-29T03:53:51;9.93;;;8.93;;
20458;SDS011;10388;52.314;7.938;2023-07-29T03:56:25;10.23;;;9.23;;
20458;SDS011;10388;52.314;7.938;2023-07-29T03:59:03;11.07;;;10.03;;
20458;SDS011;10388;52.314;7.938;2023-07-29T04:01:37;10.80;;;9.80;;
20458;SDS011;10388;52.314;7.938;2023-07-29T04:07:58;11.83;;;10.73;;
20458;SDS011;10388;52.314;7.938;2023-07-29T04:10:37;10.63;;;9.60;;
20458;SDS011;10388;52.314;7.938;2023-07-29T04:14:01;12.33;;;11.10;;
20458;SDS011;10388;52.314;7.938;2023-07-29T04:16:37;12.03;;;10.87;;
20458;SDS011;10388;52.314;7.938;2023-07-29T04:19:16;11.90;;;10.80;;
20458;SDS011;10388;52.314;7.938;2023-07-29T04:21:50;11.77;;;10.57;;
20458;SDS011;10388;52.314;7.938;2023-07-29T04:24:24;12.23;;;10.93;;
20458;SDS011;10388;52.314;7.938;2023-07-29T04:27:30;12.47;;;11.03;;
20458;SDS011;10388;52.314;7.938;2023-07-29T04:30:00;12.77;;;11.57;;
20458;SDS011;10388;52.314;7.938;2023-07-29T04:32:31;11.60;;;10.50;;
20458;SDS011;10388;52.314;7.938;2023-07-29T04:35:09;12.40;;;11.20;;
20458;SDS011;10388;52.314;7.938;2023-07-29T04:37:40;13.37;;;12.07;;
20458;SDS011;10388;52.314;7.938;2023-07-29T04:40:43;13.03;;;11.23;;
20458;SDS011;10388;52.314;7.938;2023-07-29T04:43:13;12.37;;;11.23;;
20458;SDS011;10388;52.314;7.938;2023-07-29T04:45:44;13.63;;;12.27;;
20458;SDS011;10388;52.314;7.938;2023-07-29T04:48:15;13.43;;;12.07;;
20458;SDS011;10388;52.314;7.938;2023-07-29T04:51:05;12.17;;;10.97;;
20458;SDS011;10388;52.314;7.938;2023-07-29T04:53:44;12.00;;;10.80;;
20458;SDS011;10388;52.314;7.938;2023-07-29T04:56:23;13.77;;;12.37;;
20458;SDS011;10388;52.314;7.938;2023-07-29T05:02:52;12.77;;;11.47;;
20458;SDS011;10388;52.314;7.938;2023-07-29T05:08:09;14.20;;;12.40;;
20458;SDS011;10388;52.314;7.938;2023-07-29T05:10:58;13.43;;;12.13;;
20458;SDS011;10388;52.314;7.938;2023-07-29T05:13:51;13.00;;;11.80;;
20458;SDS011;10388;52.314;7.938;2023-07-29T05:16:30;12.67;;;11.60;;
20458;SDS011;10388;52.314;7.938;2023-07-29T05:19:01;13.87;;;12.57;;
20458;SDS011;10388;52.314;7.938;2023-07-29T05:21:37;13.10;;;11.73;;
20458;SDS011;10388;52.314;7.938;2023-07-29T05:24:54;12.60;;;11.50;;
20458;SDS011;10388;52.314;7.938;2023-07-29T05:27:24;11.43;;;10.53;;
20458;SDS011;10388;52.314;7.938;2023-07-29T05:29:55;12.70;;;11.57;;
20458;SDS011;10388;52.314;7.938;2023-07-29T05:32:25;11.73;;;10.70;;
20458;SDS011;10388;52.314;7.938;2023-07-29T05:34:56;11.77;;;10.80;;
20458;SDS011;10388;52.314;7.938;2023-07-29T05:37:26;12.63;;;11.53;;
20458;SDS011;10388;52.314;7.938;2023-07-29T05:39:57;13.73;;;11.10;;
20458;SDS011;10388;52.314;7.938;2023-07-29T05:42:27;13.60;;;12.07;;
20458;SDS011;10388;52.314;7.938;2023-07-29T05:44:58;13.37;;;12.17;;
20458;SDS011;10388;52.314;7.938;2023-07-29T05:47:28;12.97;;;11.67;;
20458;SDS011;10388;52.314;7.938;2023-07-29T05:49:59;12.43;;;11.43;;
20458;SDS011;10388;52.314;7.938;2023-07-29T05:52:34;12.97;;;11.87;;
20458;SDS011;10388;52.314;7.938;2023-07-29T05:55:05;13.40;;;12.20;;
20458;SDS011;10388;52.314;7.938;2023-07-29T05:57:35;13.50;;;12.30;;
20458;SDS011;10388;52.314;7.938;2023-07-29T06:00:06;13.30;;;12.10;;
20458;SDS011;10388;52.314;7.938;2023-07-29T06:02:38;13.87;;;12.57;;
20458;SDS011;10388;52.314;7.938;2023-07-29T06:05:10;13.43;;;12.13;;
20458;SDS011;10388;52.314;7.938;2023-07-29T06:07:41;14.13;;;12.40;;
20458;SDS011;10388;52.314;7.938;2023-07-29T06:10:15;13.97;;;12.57;;
20458;SDS011;10388;52.314;7.938;2023-07-29T06:12:48;13.87;;;12.40;;
20458;SDS011;10388;52.314;7.938;2023-07-29T06:15:19;14.80;;;12.63;;
20458;SDS011;10388;52.314;7.938;2023-07-29T06:17:52;13.13;;;11.83;;
20458;SDS011;10388;52.314;7.938;2023-07-29T06:20:23;12.00;;;10.90;;
20458;SDS011;10388;52.314;7.938;2023-07-29T06:22:54;13.13;;;11.93;;
20458;SDS011;10388;52.314;7.938;2023-07-29T06:25:24;13.23;;;12.13;;
20458;SDS011;10388;52.314;7.938;2023-07-29T06:27:55;13.33;;;12.03;;
20458;SDS011;10388;52.314;7.938;2023-07-29T06:30:25;12.93;;;11.80;;
20458;SDS011;10388;52.314;7.938;2023-07-29T06:32:56;12.90;;;11.77;;
20458;SDS011;10388;52.314;7.938;2023-07-29T06:35:26;12.70;;;11.60;;
20458;SDS011;10388;52.314;7.938;2023-07-29T06:37:57;13.13;;;11.93;;
20458;SDS011;10388;52.314;7.938;2023-07-29T06:40:27;13.10;;;11.87;;
20458;SDS011;10388;52.314;7.938;2023-07-29T06:42:58;12.03;;;10.93;;
20458;SDS011;10388;52.314;7.938;2023-07-29T06:45:28;12.63;;;11.43;;
20458;SDS011;10388;52.314;7.938;2023-07-29T06:47:59;12.17;;;11.07;;
20458;SDS011;10388;52.314;7.938;2023-07-29T06:50:29;11.17;;;9.83;;
20458;SDS011;10388;52.314;7.938;2023-07-29T06:53:00;12.00;;;10.90;;
20458;SDS011;10388;52.314;7.938;2023-07-29T06:55:30;11.50;;;10.53;;
20458;SDS011;10388;52.314;7.938;2023-07-29T06:58:01;11.17;;;10.07;;
20458;SDS011;10388;52.314;7.938;2023-07-29T07:00:32;10.40;;;9.40;;
20458;SDS011;10388;52.314;7.938;2023-07-29T07:03:02;9.10;;;8.40;;
20458;SDS011;10388;52.314;7.938;2023-07-29T07:05:33;9.60;;;8.70;;
20458;SDS011;10388;52.314;7.938;2023-07-29T07:08:03;9.03;;;8.20;;
20458;SDS011;10388;52.314;7.938;2023-07-29T07:10:34;8.03;;;7.33;;
20458;SDS011;10388;52.314;7.938;2023-07-29T07:13:04;8.10;;;7.37;;
20458;SDS011;10388;52.314;7.938;2023-07-29T07:15:35;8.77;;;7.87;;
20458;SDS011;10388;52.314;7.938;2023-07-29T07:18:05;7.63;;;7.03;;
20458;SDS011;10388;52.314;7.938;2023-07-29T07:20:36;11.30;;;7.83;;
20458;SDS011;10388;52.314;7.938;2023-07-29T07:23:06;8.37;;;7.50;;
20458;SDS011;10388;52.314;7.938;2023-07-29T07:25:41;7.80;;;7.00;;
20458;SDS011;10388;52.314;7.938;2023-07-29T07:28:12;7.37;;;6.77;;
20458;SDS011;10388;52.314;7.938;2023-07-29T07:30:43;7.47;;;6.87;;
20458;SDS011;10388;52.314;7.938;2023-07-29T07:33:13;6.60;;;6.00;;
20458;SDS011;10388;52.314;7.938;2023-07-29T07:35:44;6.53;;;5.93;;
20458;SDS011;10388;52.314;7.938;2023-07-29T07:38:14;5.73;;;5.23;;
20458;SDS011;10388;52.314;7.938;2023-07-29T07:40:57;5.03;;;4.37;;
20458;SDS011;10388;52.314;7.938;2023-07-29T07:43:28;4.43;;;4.10;;
20458;SDS011;10388;52.314;7.938;2023-07-29T07:45:59;4.43;;;4.03;;
20458;SDS011;10388;52.314;7.938;2023-07-29T07:48:31;4.00;;;3.40;;
20458;SDS011;10388;52.314;7.938;2023-07-29T07:51:10;3.93;;;3.33;;
20458;SDS011;10388;52.314;7.938;2023-07-29T07:53:43;5.03;;;3.40;;
20458;SDS011;10388;52.314;7.938;2023-07-29T07:56:13;7.27;;;3.20;;
20458;SDS011;10388;52.314;7.938;2023-07-29T07:58:45;3.23;;;2.47;;
20458;SDS011;10388;52.314;7.938;2023-07-29T08:01:15;2.30;;;2.10;;
20458;SDS011;10388;52.314;7.938;2023-07-29T08:03:46;1.60;;;1.50;;
20458;SDS011;10388;52.314;7.938;2023-07-29T08:06:16;2.97;;;1.30;;
20458;SDS011;10388;52.314;7.938;2023-07-29T08:08:47;1.43;;;1.33;;
20458;SDS011;10388;52.314;7.938;2023-07-29T08:11:17;2.90;;;1.23;;
20458;SDS011;10388;52.314;7.938;2023-07-29T08:13:48;1.37;;;1.27;;
20458;SDS011;10388;52.314;7.938;2023-07-29T08:16:18;1.73;;;1.50;;
20458;SDS011;10388;52.314;7.938;2023-07-29T08:18:49;1.50;;;1.40;;
20458;SDS011;10388;52.314;7.938;2023-07-29T08:21:19;1.40;;;1.30;;
20458;SDS011;10388;52.314;7.938;2023-07-29T08:23:50;1.57;;;1.20;;
20458;SDS011;10388;52.314;7.938;2023-07-29T08:26:20;1.93;;;1.50;;
20458;SDS011;10388;52.314;7.938;2023-07-29T08:28:51;2.17;;;1.20;;
20458;SDS011;10388;52.314;7.938;2023-07-29T08:31:21;3.23;;;1.10;;
20458;SDS011;10388;52.314;7.938;2023-07-29T08:33:52;1.10;;;1.00;;
20458;SDS011;10388;52.314;7.938;2023-07-29T08:36:23;2.77;;;0.90;;
20458;SDS011;10388;52.314;7.938;2023-07-29T08:38:53;1.77;;;0.90;;
20458;SDS011;10388;52.314;7.938;2023-07-29T08:41:37;0.80;;;0.77;;
20458;SDS011;10388;52.314;7.938;2023-07-29T08:44:24;2.30;;;1.03;;
20458;SDS011;10388;52.314;7.938;2023-07-29T08:46:56;1.13;;;0.90;;
20458;SDS011;10388;52.314;7.938;2023-07-29T08:49:29;1.13;;;1.03;;
20458;SDS011;10388;52.314;7.938;2023-07-29T08:52:01;0.97;;;0.90;;
20458;SDS011;10388;52.314;7.938;2023-07-29T08:54:32;1.17;;;1.00;;
20458;SDS011;10388;52.314;7.938;2023-07-29T08:57:03;2.83;;;0.83;;
20458;SDS011;10388;52.314;7.938;2023-07-29T08:59:34;1.10;;;1.00;;
20458;SDS011;10388;52.314;7.938;2023-07-29T09:02:05;0.83;;;0.77;;
20458;SDS011;10388;52.314;7.938;2023-07-29T09:04:36;1.30;;;0.80;;
20458;SDS011;10388;52.314;7.938;2023-07-29T09:07:07;2.93;;;0.97;;
20458;SDS011;10388;52.314;7.938;2023-07-29T09:09:37;1.60;;;0.90;;
20458;SDS011;10388;52.314;7.938;2023-07-29T09:12:08;1.10;;;1.00;;
20458;SDS011;10388;52.314;7.938;2023-07-29T09:14:38;1.93;;;1.20;;
20458;SDS011;10388;52.314;7.938;2023-07-29T09:17:09;1.20;;;0.83;;
20458;SDS011;10388;52.314;7.938;2023-07-29T09:19:40;1.50;;;0.97;;
20458;SDS011;10388;52.314;7.938;2023-07-29T09:22:20;1.63;;;1.00;;
20458;SDS011;10388;52.314;7.938;2023-07-29T09:24:50;1.00;;;0.90;;
20458;SDS011;10388;52.314;7.938;2023-07-29T09:27:25;2.93;;;1.27;;
20458;SDS011;10388;52.314;7.938;2023-07-29T09:29:57;0.83;;;0.83;;
20458;SDS011;10388;52.314;7.938;2023-07-29T09:32:27;2.30;;;1.00;;
20458;SDS011;10388;52.314;7.938;2023-07-29T09:34:58;1.63;;;1.10;;
20458;SDS011;10388;52.314;7.938;2023-07-29T09:37:29;2.70;;;0.90;;
20458;SDS011;10388;52.314;7.938;2023-07-29T09:40:00;1.20;;;1.10;;
20458;SDS011;10388;52.314;7.938;2023-07-29T09:42:31;3.20;;;1.10;;
20458;SDS011;10388;52.314;7.938;2023-07-29T09:45:02;3.13;;;1.00;;
20458;SDS011;10388;52.314;7.938;2023-07-29T09:47:33;0.90;;;0.90;;
20458;SDS011;10388;52.314;7.938;2023-07-29T09:50:04;2.13;;;1.00;;
20458;SDS011;10388;52.314;7.938;2023-07-29T09:52:35;1.10;;;1.00;;
20458;SDS011;10388;52.314;7.938;2023-07-29T09:55:05;1.93;;;0.80;;
20458;SDS011;10388;52.314;7.938;2023-07-29T09:57:36;1.20;;;1.00;;
20458;SDS011;10388;52.314;7.938;2023-07-29T10:00:10;1.00;;;0.80;;
20458;SDS011;10388;52.314;7.938;2023-07-29T10:02:42;1.23;;;0.90;;
20458;SDS011;10388;52.314;7.938;2023-07-29T10:05:13;1.30;;;0.90;;
20458;SDS011;10388;52.314;7.938;2023-07-29T10:07:44;2.20;;;1.10;;
20458;SDS011;10388;52.314;7.938;2023-07-29T10:10:16;2.00;;;0.80;;
20458;SDS011;10388;52.314;7.938;2023-07-29T10:12:47;2.47;;;1.20;;
20458;SDS011;10388;52.314;7.938;2023-07-29T10:15:18;1.97;;;1.10;;
20458;SDS011;10388;52.314;7.938;2023-07-29T10:17:48;1.80;;;1.00;;
20458;SDS011;10388;52.314;7.938;2023-07-29T10:20:20;1.30;;;0.70;;
20458;SDS011;10388;52.314;7.938;2023-07-29T10:22:51;1.23;;;0.90;;
20458;SDS011;10388;52.314;7.938;2023-07-29T10:25:28;0.93;;;0.90;;
20458;SDS011;10388;52.314;7.938;2023-07-29T10:28:06;1.07;;;0.70;;
20458;SDS011;10388;52.314;7.938;2023-07-29T10:30:38;1.90;;;0.70;;
20458;SDS011;10388;52.314;7.938;2023-07-29T10:33:09;0.80;;;0.80;;
20458;SDS011;10388;52.314;7.938;2023-07-29T10:35:40;1.33;;;0.93;;
20458;SDS011;10388;52.314;7.938;2023-07-29T10:38:11;2.50;;;0.90;;
20458;SDS011;10388;52.314;7.938;2023-07-29T10:43:35;0.80;;;0.63;;
20458;SDS011;10388;52.314;7.938;2023-07-29T10:46:20;0.83;;;0.70;;
20458;SDS011;10388;52.314;7.938;2023-07-29T10:48:53;3.47;;;0.80;;
20458;SDS011;10388;52.314;7.938;2023-07-29T10:53:56;0.93;;;0.80;;
20458;SDS011;10388;52.314;7.938;2023-07-29T10:56:32;1.07;;;0.83;;
20458;SDS011;10388;52.314;7.938;2023-07-29T11:01:54;1.23;;;0.60;;
20458;SDS011;10388;52.314;7.938;2023-07-29T11:04:27;1.67;;;0.70;;
20458;SDS011;10388;52.314;7.938;2023-07-29T11:09:39;1.70;;;0.80;;
20458;SDS011;10388;52.314;7.938;2023-07-29T11:17:48;3.50;;;0.93;;
20458;SDS011;10388;52.314;7.938;2023-07-29T11:20:30;0.97;;;0.70;;
20458;SDS011;10388;52.314;7.938;2023-07-29T11:23:02;1.00;;;0.70;;
20458;SDS011;10388;52.314;7.938;2023-07-29T11:25:33;1.33;;;0.90;;
20458;SDS011;10388;52.314;7.938;2023-07-29T11:28:05;0.70;;;0.60;;
20458;SDS011;10388;52.314;7.938;2023-07-29T11:30:38;0.90;;;0.70;;
20458;SDS011;10388;52.314;7.938;2023-07-29T11:33:09;0.77;;;0.70;;
20458;SDS011;10388;52.314;7.938;2023-07-29T11:35:41;0.80;;;0.80;;
20458;SDS011;10388;52.314;7.938;2023-07-29T11:38:14;2.03;;;0.90;;
20458;SDS011;10388;52.314;7.938;2023-07-29T11:40:56;0.80;;;0.80;;
20458;SDS011;10388;52.314;7.938;2023-07-29T11:43:29;1.33;;;0.97;;
20458;SDS011;10388;52.314;7.938;2023-07-29T11:46:00;2.30;;;0.80;;
20458;SDS011;10388;52.314;7.938;2023-07-29T11:48:31;0.70;;;0.70;;
20458;SDS011;10388;52.314;7.938;2023-07-29T11:51:03;2.53;;;0.90;;
20458;SDS011;10388;52.314;7.938;2023-07-29T11:53:33;1.07;;;0.77;;
20458;SDS011;10388;52.314;7.938;2023-07-29T11:56:04;2.17;;;1.10;;
20458;SDS011;10388;52.314;7.938;2023-07-29T11:58:34;4.10;;;1.17;;
20458;SDS011;10388;52.314;7.938;2023-07-29T12:01:06;2.17;;;0.90;;
20458;SDS011;10388;52.314;7.938;2023-07-29T12:03:37;0.93;;;0.83;;
20458;SDS011;10388;52.314;7.938;2023-07-29T12:06:08;0.90;;;0.80;;
20458;SDS011;10388;52.314;7.938;2023-07-29T12:08:39;1.00;;;0.90;;
20458;SDS011;10388;52.314;7.938;2023-07-29T12:11:11;1.30;;;0.90;;
20458;SDS011;10388;52.314;7.938;2023-07-29T12:13:43;0.63;;;0.63;;
20458;SDS011;10388;52.314;7.938;2023-07-29T12:16:16;1.90;;;1.00;;
20458;SDS011;10388;52.314;7.938;2023-07-29T12:18:50;2.53;;;0.90;;
20458;SDS011;10388;52.314;7.938;2023-07-29T12:21:21;1.17;;;0.90;;
20458;SDS011;10388;52.314;7.938;2023-07-29T12:23:51;2.03;;;1.10;;
20458;SDS011;10388;52.314;7.938;2023-07-29T12:26:26;1.17;;;1.00;;
20458;SDS011;10388;52.314;7.938;2023-07-29T12:28:58;1.27;;;0.80;;
20458;SDS011;10388;52.314;7.938;2023-07-29T12:31:32;1.33;;;1.10;;
20458;SDS011;10388;52.314;7.938;2023-07-29T12:34:03;1.53;;;1.23;;
20458;SDS011;10388;52.314;7.938;2023-07-29T12:36:41;1.93;;;1.10;;
20458;SDS011;10388;52.314;7.938;2023-07-29T12:39:16;1.60;;;1.07;;
20458;SDS011;10388;52.314;7.938;2023-07-29T12:41:57;2.73;;;1.10;;
20458;SDS011;10388;52.314;7.938;2023-07-29T12:44:30;1.27;;;0.97;;
20458;SDS011;10388;52.314;7.938;2023-07-29T12:47:03;1.27;;;1.10;;
20458;SDS011;10388;52.314;7.938;2023-07-29T12:49:35;2.37;;;1.03;;
20458;SDS011;10388;52.314;7.938;2023-07-29T12:52:06;1.30;;;1.20;;
20458;SDS011;10388;52.314;7.938;2023-07-29T12:54:36;1.30;;;1.20;;
20458;SDS011;10388;52.314;7.938;2023-07-29T12:57:07;2.17;;;1.00;;
20458;SDS011;10388;52.314;7.938;2023-07-29T12:59:37;2.97;;;1.00;;
20458;SDS011;10388;52.314;7.938;2023-07-29T13:02:08;3.80;;;1.40;;
20458;SDS011;10388;52.314;7.938;2023-07-29T13:04:42;1.07;;;0.97;;
20458;SDS011;10388;52.314;7.938;2023-07-29T13:07:12;1.93;;;1.20;;
20458;SDS011;10388;52.314;7.938;2023-07-29T13:09:43;3.67;;;1.37;;
20458;SDS011;10388;52.314;7.938;2023-07-29T13:12:14;1.00;;;1.00;;
20458;SDS011;10388;52.314;7.938;2023-07-29T13:14:44;1.23;;;0.90;;
20458;SDS011;10388;52.314;7.938;2023-07-29T13:17:15;1.07;;;0.80;;
20458;SDS011;10388;52.314;7.938;2023-07-29T13:19:45;1.07;;;0.87;;
20458;SDS011;10388;52.314;7.938;2023-07-29T13:22:16;0.80;;;0.80;;
20458;SDS011;10388;52.314;7.938;2023-07-29T13:24:47;0.80;;;0.80;;
20458;SDS011;10388;52.314;7.938;2023-07-29T13:27:17;2.97;;;1.20;;
20458;SDS011;10388;52.314;7.938;2023-07-29T13:29:48;1.27;;;0.90;;
20458;SDS011;10388;52.314;7.938;2023-07-29T13:32:18;2.60;;;0.90;;
20458;SDS011;10388;52.314;7.938;2023-07-29T13:34:49;1.70;;;0.80;;
20458;SDS011;10388;52.314;7.938;2023-07-29T13:37:19;1.13;;;1.03;;
20458;SDS011;10388;52.314;7.938;2023-07-29T13:39:50;1.03;;;0.97;;
20458;SDS011;10388;52.314;7.938;2023-07-29T13:42:20;1.20;;;1.10;;
20458;SDS011;10388;52.314;7.938;2023-07-29T13:44:51;1.77;;;0.80;;
20458;SDS011;10388;52.314;7.938;2023-07-29T13:47:21;1.60;;;1.00;;
20458;SDS011;10388;52.314;7.938;2023-07-29T13:49:52;1.80;;;0.90;;
20458;SDS011;10388;52.314;7.938;2023-07-29T13:52:22;1.50;;;1.00;;
20458;SDS011;10388;52.314;7.938;2023-07-29T13:54:53;1.03;;;0.90;;
20458;SDS011;10388;52.314;7.938;2023-07-29T13:57:23;0.97;;;0.87;;
20458;SDS011;10388;52.314;7.938;2023-07-29T13:59:54;3.03;;;1.10;;
20458;SDS011;10388;52.314;7.938;2023-07-29T14:02:24;2.10;;;1.20;;
20458;SDS011;10388;52.314;7.938;2023-07-29T14:05:00;1.03;;;0.90;;
20458;SDS011;10388;52.314;7.938;2023-07-29T14:07:31;1.97;;;1.10;;
20458;SDS011;10388;52.314;7.938;2023-07-29T14:10:02;2.33;;;1.00;;
20458;SDS011;10388;52.314;7.938;2023-07-29T14:12:33;1.80;;;0.90;;
20458;SDS011;10388;52.314;7.938;2023-07-29T14:15:04;4.37;;;1.07;;
20458;SDS011;10388;52.314;7.938;2023-07-29T14:17:36;3.70;;;1.03;;
20458;SDS011;10388;52.314;7.938;2023-07-29T14:20:07;1.17;;;1.07;;
20458;SDS011;10388;52.314;7.938;2023-07-29T14:22:37;5.33;;;1.30;;
20458;SDS011;10388;52.314;7.938;2023-07-29T14:25:08;2.43;;;1.27;;
20458;SDS011;10388;52.314;7.938;2023-07-29T14:27:38;1.50;;;1.20;;
20458;SDS011;10388;52.314;7.938;2023-07-29T14:30:09;1.80;;;1.00;;
20458;SDS011;10388;52.314;7.938;2023-07-29T14:32:40;1.03;;;0.90;;
20458;SDS011;10388;52.314;7.938;2023-07-29T14:35:13;1.10;;;1.00;;
20458;SDS011;10388;52.314;7.938;2023-07-29T14:37:43;2.40;;;1.37;;
20458;SDS011;10388;52.314;7.938;2023-07-29T14:40:14;1.53;;;1.37;;
20458;SDS011;10388;52.314;7.938;2023-07-29T14:42:44;1.53;;;1.40;;
20458;SDS011;10388;52.314;7.938;2023-07-29T14:45:15;2.57;;;1.33;;
20458;SDS011;10388;52.314;7.938;2023-07-29T14:47:45;1.80;;;1.50;;
20458;SDS011;10388;52.314;7.938;2023-07-29T14:50:16;4.40;;;1.63;;
20458;SDS011;10388;52.314;7.938;2023-07-29T14:52:47;3.37;;;1.80;;
20458;SDS011;10388;52.314;7.938;2023-07-29T14:55:17;2.77;;;1.60;;
20458;SDS011;10388;52.314;7.938;2023-07-29T14:57:48;2.27;;;1.70;;
20458;SDS011;10388;52.314;7.938;2023-07-29T15:00:19;2.83;;;1.77;;
20458;SDS011;10388;52.314;7.938;2023-07-29T15:02:49;3.40;;;1.90;;
20458;SDS011;10388;52.314;7.938;2023-07-29T15:05:20;2.80;;;1.50;;
20458;SDS011;10388;52.314;7.938;2023-07-29T15:07:50;2.00;;;1.33;;
20458;SDS011;10388;52.314;7.938;2023-07-29T15:10:21;2.83;;;1.23;;
20458;SDS011;10388;52.314;7.938;2023-07-29T15:12:51;1.40;;;1.30;;
20458;SDS011;10388;52.314;7.938;2023-07-29T15:15:22;1.37;;;1.10;;
20458;SDS011;10388;52.314;7.938;2023-07-29T15:17:53;5.07;;;1.10;;
20458;SDS011;10388;52.314;7.938;2023-07-29T15:20:23;1.37;;;1.17;;
20458;SDS011;10388;52.314;7.938;2023-07-29T15:22:54;1.33;;;1.23;;
20458;SDS011;10388;52.314;7.938;2023-07-29T15:25:24;1.43;;;1.33;;
20458;SDS011;10388;52.314;7.938;2023-07-29T15:27:55;2.03;;;1.30;;
20458;SDS011;10388;52.314;7.938;2023-07-29T15:30:25;2.23;;;1.47;;
20458;SDS011;10388;52.314;7.938;2023-07-29T15:32:56;3.10;;;1.33;;
20458;SDS011;10388;52.314;7.938;2023-07-29T15:35:26;1.47;;;1.30;;
20458;SDS011;10388;52.314;7.938;2023-07-29T15:37:57;1.87;;;1.37;;
20458;SDS011;10388;52.314;7.938;2023-07-29T15:40:27;3.03;;;1.33;;
20458;SDS011;10388;52.314;7.938;2023-07-29T15:42:58;1.10;;;1.00;;
20458;SDS011;10388;52.314;7.938;2023-07-29T15:45:29;2.43;;;1.10;;
20458;SDS011;10388;52.314;7.938;2023-07-29T15:50:40;1.10;;;1.00;;
20458;SDS011;10388;52.314;7.938;2023-07-29T15:53:11;1.27;;;1.00;;
20458;SDS011;10388;52.314;7.938;2023-07-29T15:55:42;1.30;;;1.20;;
20458;SDS011;10388;52.314;7.938;2023-07-29T15:58:12;1.60;;;1.07;;